Huvudsida
METAR-TAF:

METAR-TAF

Flygplatser :

Florø flygplats

Florø, Norge

latitud: 61-35N, longitud: 005-02E, höjd: 0 m

Aktuellt väderrapport

Denna rapport gjordes för 10 minuter sedan, klockan 00:50 UTC
Vind 10 kt från ost/nordost
Temperatur 9°C
Fuktighet 66%
Tryck 1017 hPa
Sikt 10 km eller mer

METAR: ENFL 230050Z AUTO 07010KT 9999NDV NCD 09/03 Q1017

Tid: 03:00 (01:00 UTC)

Väderprognos

Denna rapport gjordes för 8 timmar och 0 minuter sedan, klockan 17:00 UTC
Prognos gäller från 22 kl. 18 UTC till 22 kl. 22 UTC
Vind 10 kt från syd
Sikt 10 km eller mer
Inga moln under 1 500 m eller inga cumulonimbus
Blir
från 22 kl. 18 UTC till 22 kl. 20 UTC
Vind 8 kt från ost/sydost

TAF: ENFL 221700Z 2218/2222 18010KT CAVOK BECMG 2218/2220 12008KT

Aktuella väderrapporter och prognoser från 4000 flygplatser (METAR- och TAF-rapporter).

De tillgängliga stationerna syns som gula och röda prickar på kartan.

För musen över prickarna för att se namnen på stationerna.

Klicka sedan för att få väderrapporter och prognoser.

För att ändra kartan: Klicka på de gröna knapparna med ett svart kors på för att zooma in; den gröna knappen med ett streck på för att zooma ut; eller på de gröna pilarna för angränsande kartor.


METAR-TAF: